• Join FlightAware (Why Join?)
  • Login
  • US Flag 
09:44PM EST


 

Airport Tracker/Info


-or-


 

Live Flight TrackerFlight Track Log ✈ N310ME ✈ 12-Mar-2012 ✈ KIND - KCOU

Flight Track Log - Related Links

Times and Time Zones

All times are in EDT time to prevent confusion due to time zone crossing. See the N310ME flight status page for this flight to view local times or setup timezone preferences in your user account.

Time Position Orientation Groundspeed Altitude Reporting Facility
EDT Latitude Longitude Course Direction KTS MPH feet Rate Location/Type
01:27PM 39.7116 -86.4489 162° South  Level FlightAware Approximate
01:28PM 39.6333 -86.4167 259° West 227 261 6,000  Level Indianapolis TRACON
01:29PM 39.6200 -86.5086 258° West 252 290 8,800 2,520 Climbing Indianapolis Center
01:30PM 39.6053 -86.5997 260° West 262 302 11,300 2,280 Climbing Indianapolis Center
01:31PM 39.5897 -86.7122 260° West 299 344 13,400 3,120 Climbing Indianapolis Center
01:32PM 39.5742 -86.8244 262° West 312 359 17,600 3,480 Climbing Indianapolis Center
01:33PM 39.5631 -86.9264 261° West 307 353 20,400 2,460 Climbing Indianapolis Center
01:34PM 39.5494 -87.0389 261° West 302 348 22,600 2,100 Climbing Indianapolis Center
01:35PM 39.5356 -87.1511 261° West 317 365 24,700 2,040 Climbing Indianapolis Center
01:36PM 39.5217 -87.2689 261° West 329 379 26,700 1,800 Climbing Indianapolis Center
01:37PM 39.5072 -87.3919 259° West 335 386 28,400 1,080 Climbing Indianapolis Center
01:38PM 39.4883 -87.5203 261° West 354 407 28,900 720 Climbing Indianapolis Center
01:39PM 39.4711 -87.6564 263° West 382 440 29,900 1,920 Climbing Indianapolis Center
01:41PM 39.4525 -87.8553 261° West 389 448 33,800 1,560 Climbing Kansas City Center
01:42PM 39.4364 -87.9803 262° West 364 419 34,000 60 Climbing Kansas City Center
01:43PM 39.4208 -88.1161 260° West 364 419 34,000  Level Kansas City Center
01:44PM 39.4011 -88.2550 260° West 378 435 34,000 -60 Level Kansas City Center
01:45PM 39.3831 -88.3908 260° West 389 448 33,900 -840 Descending Kansas City Center
01:46PM 39.3633 -88.5350 261° West 395 455 32,400 -1,560 Descending Kansas City Center
01:47PM 39.3472 -88.6731 260° West 400 460 30,800 -1,200 Descending Kansas City Center
01:48PM 39.3269 -88.8169 260° West 405 466 30,000 -420 Descending Kansas City Center
01:49PM 39.3083 -88.9528 260° West 398 458 30,000  Level Kansas City Center
01:50PM 39.2897 -89.0936 260° West 392 451 30,000  Level Kansas City Center
01:51PM 39.2692 -89.2372 260° West 400 460 30,000 -300 Level Kansas City Center
01:52PM 39.2503 -89.3781 260° West 411 473 29,400 -1,080 Descending Kansas City Center
01:53PM 39.2328 -89.5081 260° West 411 473 27,900 -1,740 Descending Kansas City Center
01:54PM 39.2100 -89.6675 260° West 417 480 26,000 -1,800 Descending Kansas City Center
01:55PM 39.1906 -89.8028 260° West 427 491 24,400 -1,680 Descending Kansas City Center
01:56PM 39.1692 -89.9542 259° West 432 497 22,700 -1,740 Descending Kansas City Center
01:57PM 39.1442 -90.1164 260° West 426 490 21,000 -1,380 Descending Kansas City Center
01:58PM 39.1258 -90.2486 259° West 426 490 20,000 -1,260 Descending Kansas City Center
01:59PM 39.1039 -90.3944 260° West 399 459 18,500 -1,740 Descending Kansas City Center
02:00PM 39.0869 -90.5131 259° West 393 452 16,600 -1,260 Descending Kansas City Center
02:01PM 39.0647 -90.6614 258° West 388 447 16,000 -300 Descending Kansas City Center
02:02PM 39.0456 -90.7744 260° West 376 433 16,000  Level Kansas City Center
02:03PM 39.0250 -90.9228 259° West 376 433 16,000  Level Kansas City Center
02:04PM 39.0039 -91.0600 259° West 382 440 16,000  Level Kansas City Center
02:05PM 38.9828 -91.1972 244° Southwest 392 451 16,000 -360 Level Kansas City Center
02:06PM 38.9661 -91.2414 258° West 369 425 15,400 -900 Descending FAA TRACON SMA TRACON (SMA)
02:06PM 38.9525 -91.3214 266° West 328 377 14,700 -1,200 Descending FAA TRACON SMA TRACON (SMA)
02:07PM 38.9472 -91.4231 259° West 342 394 14,000 -1,440 Descending Kansas City Center
02:08PM 38.9311 -91.5278 258° West 305 351 12,500 -1,620 Descending Kansas City Center
02:09PM 38.9147 -91.6272 258° West 288 331 10,800 -1,680 Descending Kansas City Center
02:10PM 38.8983 -91.7239 259° West 283 326 9,200 -1,860 Descending Kansas City Center
02:11PM 38.8856 -91.8069 257° West 250 288 7,100 -2,340 Descending Kansas City Center
02:12PM 38.8708 -91.8875 261° West 243 280 4,600 -2,100 Descending Kansas City Center
02:13PM 38.8600 -91.9706 258° West 243 280 3,000 -840 Descending Kansas City Center
02:14PM 38.8489 -92.0375 279° West 224 258 3,000  Level Kansas City Center
02:15PM 38.8564 -92.0961 281° West 193 222 3,000 -300 Level Kansas City Center
02:16PM 38.8658 -92.1597 250° West 180 207 2,400 -780 Descending Kansas City Center
02:17PM 38.8542 -92.2000 199° South 156 180 1,500 -780 Descending Kansas City Center
02:18PM 38.8211 -92.2144 250° West 125 144 900 3,240 Descending Kansas City Center
02:19PM 38.8056 -92.2681 238° Southwest 125 144 8,000 3,540 Climbing Kansas City Center
02:20PM 38.7853 -92.3089 238° Southwest 125 144 8,000  Level Kansas City Center
02:21PM 38.7653 -92.3492 238° Southwest 125 144 8,000  Level Kansas City Center
02:22PM 38.7492 -92.3817 238° Southwest 125 144 8,000  Level Kansas City Center